Colorado AWOS List, Phone Numbers, Maps

USA |  
| Search AWOS

Rocky Mountain States: Montana | Wyoming | Colorado | New Mexico

Complete weather reports: Colorado

Legend: KFNL = METAR available Follow your local AWOS on AV Mobile = METAR available on AV Mobile
Station Colorado Location Frequency Phone
KAKOFAA ID AKO, ASOS, KAKO 231153Z AUTO 26009KT 10SM CLR 07/05 A3012 RMK AO2 SLP179 T00720050 10094 20050 55001 Follow KAKO on AV Mobile COLORADO PLAINS REGIONAL 135.475 970-345-2320
KALSFAA ID ALS, ASOS, KALS 231152Z AUTO 00000KT 10SM CLR M03/M04 A3031 Follow KALS on AV Mobile SAN LUIS VALLEY REGIONAL 135.175 719-589-5669
KASEFAA ID ASE, ASOS, KASE 231153Z 20006KT 10SM CLR 01/M02 A3034 Follow KASE on AV Mobile ASPEN-PITKIN COUNTY AIRPORT 120.400 970-925-9168
KBKFFAA ID BKF, KBKF 231158Z 20007KT 10SM FEW220 06/02 A3017 Follow KBKF on AV Mobile Aurora, Buckley Air Force Base Airport
K7BMFAA ID 7BM, AWOS-3, K7BM 231154Z AUTO 33007G15KT 290V350 10SM CLR 06/M05 A3037 RMK AO2 Follow K7BM on AV Mobile Cottonwood Pass 132.050 303-512-4919
KBDUFAA ID BDU, AWOS-3, KBDU 231156Z AUTO 00000KT 10SM CLR 06/02 A3015 RMK AO2 Follow KBDU on AV Mobile Boulder Municipal Airport 118.825 303-541-9540
KAEJFAA ID AEJ, AWOS-3, KAEJ 231155Z AUTO 00000KT 10SM CLR 00/M03 A3033 RMK AO2 T10011030 10038 21004 Follow KAEJ on AV Mobile Central Colorado Regional Airport 132.925 719-395-2599
KITRFAA ID ITR, ASOS, KITR 231153Z AUTO 25006KT 9SM CLR 06/04 A3013 RMK AO2 SLP181 T00560044 10089 20056 50002 Follow KITR on AV Mobile Kit Carson County Airport 135.225 719-346-7036
K1V6FAA ID 1V6, AWOS-3, K1V6 231155Z AUTO 27011KT 10SM CLR 09/00 A3018 RMK AO2 Follow K1V6 on AV Mobile CANON CITY 120.025
KAFFFAA ID AFF, KAFF 231158Z AUTO 36009KT 10SM CLR 02/00 A3021 RMK AO2 SLP203 70004 T00221005 10047 20018 56003 Follow KAFF on AV Mobile Air Force Academy
KCOSFAA ID COS, ASOS, KCOS 231154Z 02009KT 10SM FEW250 06/02 A3021 Follow KCOS on AV Mobile COLORADO SPRINGS MUNI 125.000 719-637-9696
KFLYFAA ID FLY, AWOS-3PT, KFLY 231153Z AUTO 32007KT 10SM CLR 05/00 A3023 RMK AO2 T00520000 10080 20035 Follow KFLY on AV Mobile Meadowlake Airport, Peyton, CO 118.450 719-683-5371
KCCUFAA ID CCU, AWOS-3, KCCU 231157Z AUTO 26016G22KT 7SM CLR 01/M05 A3046 RMK AO2 Follow KCCU on AV Mobile Copper Mountain, Red Cliff Pass 118.075 970-968-1715
KCEZFAA ID CEZ, ASOS, KCEZ 231153Z AUTO 08003KT 10SM CLR 02/00 A3028 RMK AO2 SLP214 T00170000 10061 20011 53006 Follow KCEZ on AV Mobile CORTEZ MONTEZUMA COUNTY AIRPORT 135.625 970-564-0193
KCAGFAA ID CAG, ASOS, KCAG 231153Z AUTO 00000KT 10SM CLR M02/M04 A3029 Follow KCAG on AV Mobile CRAIG MOFFAT AIRPORT 135.425 970-824-2373
KAJZFAA ID AJZ, AWOS-3, KAJZ 231155Z AUTO 09003KT 10SM CLR 05/02 A3027 RMK AO2 T00510015 10095 20051 Follow KAJZ on AV Mobile Blake Field Airport 134.000 970-874-3251
KDNRICAO ID KDNR Denver / Stapleton International, Co.
KAPAFAA ID APA, ASOS, KAPA 231153Z 17005KT 10SM CLR 04/01 A3017 RMK AO2 SLP190 T00440006 10089 20039 55002 Follow KAPA on AV Mobile DENVER CENTENNIAL AIRPORT 120.300 303-706-9098
KDENFAA ID DEN, ASOS, KDEN 231153Z 21007KT 10SM FEW100 SCT220 07/02 A3016 Follow KDEN on AV Mobile DENVER INTERNATIONAL AIRPORT 125.600 303-342-0838
KFTGFAA ID FTG, AWOS-3, KFTG 231201Z AUTO 21007KT 10SM CLR 08/03 A3016 RMK AO2 Follow KFTG on AV Mobile Front Range Airport 119.025 303-261-9104
KBJCFAA ID BJC, AWOS-3, KBJC 231155Z AUTO 26004KT 10SM CLR 07/02 A3017 Follow KBJC on AV Mobile Rocky Mountain Metro Airport 126.250 720-887-8067
K4V5ICAO ID K4V5 Durango Aviation Weather Reporting Station
KDROFAA ID DRO, ASOS, KDRO 231153Z AUTO 35003KT 10SM CLR 02/00 A3030 RMK AO2 SLP229 70008 T00170000 10056 20011 53006 Follow KDRO on AV Mobile DURANGO-LA PLATA COUNTY AIRPORT 120.625 970-259-3579
KEGEFAA ID EGE, AWOS-3, KEGE 231155Z AUTO 00000KT 10SM CLR 00/M01 A3035 Follow KEGE on AV Mobile Eagle County Regional 135.575 970-524-7386
CO90FAA ID CO90, ASOS, K2V5 231225Z AUTO 26006KT 10SM CLR 04/01 A3011 RMK AO2 T00380012 Follow  on AV Mobile USAF Academy Bullseye Aux Airstrip 118.325 719-683-3346
K0COFAA ID 0CO, AWOS-3, K0CO 231150Z AUTO 30033G43KT 10SM CLR M03/M05 A3041 RMK AO2 Follow K0CO on AV Mobile EMPIRE 134.325
KEIKFAA ID EIK, AWOS-3, KEIK 231155Z AUTO 00000KT 10SM CLR 04/02 A3015 RMK AO2 T00410024 10083 20027 Follow KEIK on AV Mobile Erie Municipal Airport 133.825 303-604-4339
KFCSFAA ID FCS, KFCS 231158Z AUTO 34007KT 10SM CLR 05/02 A3019 RMK AO2 SLP212 70001 T00500019 10099 20050 53002 Follow KFCS on AV Mobile Fort Carson
KFCLICAO ID KFCL Fort Collins Supplementary Aviation Weather Reporting Station
KFNLFAA ID FNL, AWOS-3, KFNL 231155Z AUTO 00000KT 10SM CLR 06/02 A3016 RMK AO1 10080 20030 54000 Follow KFNL on AV Mobile Fort Collins/Loveland, Fort Collins-Loveland Municipal Airport 135.075 970-669-9187
KFMMFAA ID FMM, AWOS-3, KFMM 231155Z AUTO 26006KT 10SM CLR 02/01 A3013 RMK AO2 T00220010 10087 20015 Follow KFMM on AV Mobile Fort Morgan Municipal Airport 132.950 970-867-4823
KGNBFAA ID GNB, AWOS-1 Granby-Grand County Airport 119.925 970-887-1803
KGJTFAA ID GJT, ASOS, KGJT 231153Z 15003KT 10SM CLR 06/03 A3022 Follow KGJT on AV Mobile GRAND JUNCTION WALKER FIELD 118.550 970-245-7881
KGXYFAA ID GXY, AWOS-3, KGXY 231155Z AUTO 30004KT 10SM CLR 02/M03 A3016 RMK AO1 10080 20010 52003 Follow KGXY on AV Mobile Greeley, Greeley-Weld County Airport 135.175 970-352-3511
K2V9ICAO ID K2V9 Gunnison Aviation Weather Reporting Station
KGUCFAA ID GUC, AWOS-3, KGUC 231155Z AUTO 00000KT 10SM CLR M01/M03 A3040 RMK AO1 70007 10040 21020 52014 Follow KGUC on AV Mobile Gunnison, Gunnison-Crested Butte Regional Airport 135.075 970-641-3240
KHDNFAA ID HDN, AWOS-3, KHDN 231155Z AUTO 12008KT 10SM CLR 01/M02 A3028 RMK AO1 10040 20010 52003 Follow KHDN on AV Mobile Hayden, Yampa Valley Airport 119.275 970-276-3690
KHEQFAA ID HEQ, AWOS-3, KHEQ 231155Z AUTO 26006KT 10SM CLR 05/01 A3010 RMK AO2 Follow KHEQ on AV Mobile Holyoke Airport 119.275 970-854-3679
K20VFAA ID 20V, AWOS-3, K20V 231154Z AUTO 00000KT 1/2SM FZFG OVC001 M01/M02 RMK AO2 Follow K20V on AV Mobile Kremmling, Mc Elroy Airfield 118.425 970-724-9659
KLHXFAA ID LHX, ASOS, KLHX 231153Z AUTO 23006KT 10SM CLR 08/06 A3013 RMK AO2 SLP169 T00830061 10150 20078 53007 Follow KLHX on AV Mobile LA JUNTA MUNICIPAL AIRPORT 135.525 719-384-5961
KVTPFAA ID VTP, AWOS-3, KVTP 231148Z AUTO 20007G17KT 140V250 10SM CLR 01/M01 A3036 RMK AO2 Follow KVTP on AV Mobile La Veta Mountain, La Veta Pass 119.925 719-587-3120
KLAAFAA ID LAA, ASOS, KLAA 231153Z AUTO 26003KT 8SM CLR 07/05 A3010 RMK AO2 SLP168 T00670050 10117 20056 51006 Follow KLAA on AV Mobile LAMAR MUNICIPAL AIRPORT 135.625 719-336-3854
KLXVFAA ID LXV, ASOS, KLXV 231153Z AUTO 02004KT 10SM CLR 00/M05 A3038 Follow KLXV on AV Mobile LEADVILLE LAKE CO 118.375 719-486-2735
KLICFAA ID LIC, ASOS, KLIC 231155Z AUTO 34005KT 10SM CLR 04/03 A3016 RMK AO2 SLP188 70001 T00390033 10067 20033 50000 Follow KLIC on AV Mobile LIMON MUNICIPAL AIRPORT 121.125 719-775-0515
KLMOFAA ID LMO, AWOS-3, KLMO 231153Z AUTO 00000KT 5SM BR CLR 03/00 A3017 RMK AO2 T00280004 Follow KLMO on AV Mobile Vance Brand Airport 120.000 303-684-7545
KEEOFAA ID EEO, ASOS, KEEO 231153Z AUTO 33004KT 10SM CLR 02/00 A3029 RMK AO2 SLP222 T00170000 10056 20011 53005 FZRANO Follow KEEO on AV Mobile MEEKER AIRPORT 135.525 970-878-5036
KMYPFAA ID MYP, AWOS-3, KMYP 231157Z AUTO 27024KT 10SM SCT001 M02/M02 A3054 RMK AO2 Follow KMYP on AV Mobile Salida Mountain, Monarch Pass 124.175 719-539-4436
KMTJFAA ID MTJ, ASOS, KMTJ 231153Z AUTO 16006KT 10SM CLR 04/01 A3029 RMK AO2 SLP215 T00390011 10089 20039 53007 Follow KMTJ on AV Mobile MONTROSE REGIONAL AIRPORT 135.225 970-249-1534
KMNHFAA ID MNH, AWOS-3, KMNH 231152Z AUTO 24005KT 10SM CLR 03/M01 A3021 RMK AO2 Follow KMNH on AV Mobile Elbert Mountain, Monument Pass 134.375 303-648-3479
K3MWFAA ID 3MW, AWOS-3, K3MW 211630Z AUTO RMK AO2 TSNO PWINO Follow K3MW on AV Mobile Mount Werner 127.125 970-871-5640
KCRVICAO ID KCRV Nederland Mountain, Corona Pass
KAIBFAA ID AIB, AWOS-3, KAIB 230915Z AUTO 11004KT 10SM CLR 06/00 A3029 RMK AO2 Follow KAIB on AV Mobile Hopkins Field Airport 132.525 970-864-2325
KPSOFAA ID PSO, AWOS-3, KPSO 231155Z AUTO 00000KT 4SM BR CLR 02/02 A3033 RMK AO2 T00170017 10042 20015 Follow KPSO on AV Mobile Stevens Field Airport 127.175 970-731-0365
KPEFICAO ID KPEF Peterson Air Force Base
KPUXICAO ID KPUX Pueblo NEXRAD
KPUBFAA ID PUB, ASOS, KPUB 231153Z 24006KT 10SM CLR 06/04 A3015 Follow KPUB on AV Mobile PUEBLO MEMORIAL AIRPORT 125.250 719-948-2803
K1V1ICAO ID K1V1 Rifle Aviation Weather Reporting Station
KRILFAA ID RIL, ASOS, KRIL 231153Z AUTO 00000KT 10SM CLR 02/01 A3028 RMK AO2 SLP232 T00220006 10061 20017 53007 Follow KRIL on AV Mobile RIFLE GARFIELD COUNTY RGNL 135.275 970-625-2206
K04VFAA ID 04V, AWOS-3, K04V 231154Z AUTO 31003KT 10SM CLR 01/M01 A3033 RMK AO2 Follow K04V on AV Mobile Saguache, Saguache Municipal Airport 118.625 719-655-2229
KS29ICAO ID KS29 Salida
KANKFAA ID ANK, AWOS-3, KANK 231155Z AUTO 27003KT 10SM CLR 03/00 A3039 RMK AO1 T00331005 10087 20031 Follow KANK on AV Mobile Harriet Alexander Field Airport 133.850 719-539-5268
KSPDICAO ID KSPD, KSPD 231156Z AUTO 28005KT 07/06 A3011 RMK AO1 SLP162 T00720061 10100 20067 53004 Follow KSPD on AV Mobile SPRINGFIELD COMANCHE NATL
KSBSFAA ID SBS, AWOS-3, KSBS 231154Z AUTO 00000KT 10SM CLR 00/M01 A3030 RMK AO1 T00001011 Follow KSBS on AV Mobile Steamboat Springs 118.325 970-879-7794
KSTKFAA ID STK, AWOS-3, KSTK 231155Z AUTO 27004KT 10SM CLR 01/00 A3011 RMK AO2 Follow KSTK on AV Mobile Sterling Municipal Airport 118.525 970-526-3009
K5SMFAA ID 5SM, AWOS-3, K5SM 231158Z AUTO 00000KT 10SM CLR 01/00 A3045 RMK AO2 Follow K5SM on AV Mobile Sunlight 126.075 970-384-3380
KTEXFAA ID TEX, AWOS-3, KTEX 231155Z AUTO 12005KT 10SM SCT050 03/00 A3042 RMK AO2 7//// T00260000 10050 20025 Follow KTEX on AV Mobile Telluride, Telluride Regional Airport 118.325 970-728-1534
KTADFAA ID TAD, ASOS, KTAD 231154Z AUTO 25013KT 10SM CLR 08/02 A3019 RMK AO2 SLP171 T00780017 10100 20072 53003 Follow KTAD on AV Mobile Trinidad, Perry Stokes Airport 119.025 719-845-1156
K33VFAA ID 33V, AWOS-3, K33V 231154Z AUTO 19013KT 10SM CLR 02/M01 A3028 RMK AO2 Follow K33V on AV Mobile WALDEN 118.625 970-723-4513
4V1FAA ID 4V1, AWOS-3, K2V5 231225Z AUTO 26006KT 10SM CLR 04/01 A3011 RMK AO2 T00380012 Follow  on AV Mobile Spanish Peaks Airfield 123.600 719-738-1053
K4BMFAA ID 4BM, AWOS-3, K4BM 260156Z AUTO 20008KT 7SM RA SCT035 SCT055 BKN090 08/03 A3056 RMK AO2 Follow K4BM on AV Mobile Wilkerson Pass 132.3 303-512-4418
KC96ICAO ID KC96 Winter Park Resort
KCPWFAA ID CPW, AWOS-3, KCPW 231156Z AUTO 31003KT 10SM CLR 00/M06 RMK AO2 Follow KCPW on AV Mobile Pagosa Springs, Wolf Creek Pass 121.125 970-264-2180
K2V5FAA ID 2V5, AWOS-3, K2V5 231155Z AUTO 25007KT 10SM CLR 04/01 A3011 RMK AO2 T00400011 10069 20033 Follow K2V5 on AV Mobile Wray Municipal Airport 118.250 970-332-5930

Click on the AV Mobile icon AV Mobile icon by any station to follow that AWOS feed on AirportView.net Mobile.

Legend: Commercial service airport with AWOS Commercial Airport AWOSNon-Commercial service airport with AWOS Non-Commercial Airport AWOS
Airport AWOS - Click symbol for weather report Fort Morgan Municipal Airport KFMM 231155Z AUTO 26006KT 10SM CLR 02/01 A3013 RMK AO2 T00220010 10087 20015 Hopkins Field Airport KAIB 230915Z AUTO 11004KT 10SM CLR 06/00 A3029 RMK AO2 Telluride, Telluride Regional Airport KTEX 231155Z AUTO 12005KT 10SM SCT050 03/00 A3042 RMK AO2 7//// T00260000 10050 20025 Greeley, Greeley-Weld County Airport KGXY 231155Z AUTO 30004KT 10SM CLR 02/M03 A3016 RMK AO1 10080 20010 52003 Front Range Airport KFTG 231201Z AUTO 21007KT 10SM CLR 08/03 A3016 RMK AO2 Rocky Mountain Metro Airport KBJC 231155Z AUTO 26004KT 10SM CLR 07/02 A3017 DENVER CENTENNIAL AIRPORT KAPA 231153Z 17005KT 10SM CLR 04/01 A3017 RMK AO2 SLP190 T00440006 10089 20039 55002 DENVER INTERNATIONAL AIRPORT KDEN 231153Z 21007KT 10SM FEW100 SCT220 07/02 A3016 Fort Collins/Loveland, Fort Collins-Loveland Municipal Airport KFNL 231155Z AUTO 00000KT 10SM CLR 06/02 A3016 RMK AO1 10080 20030 54000 Boulder Municipal Airport KBDU 231156Z AUTO 00000KT 10SM CLR 06/02 A3015 RMK AO2 Vance Brand Airport KLMO 231153Z AUTO 00000KT 5SM BR CLR 03/00 A3017 RMK AO2 T00280004 Sterling Municipal Airport KSTK 231155Z AUTO 27004KT 10SM CLR 01/00 A3011 RMK AO2 Holyoke Airport KHEQ 231155Z AUTO 26006KT 10SM CLR 05/01 A3010 RMK AO2 COLORADO PLAINS REGIONAL KAKO 231153Z AUTO 26009KT 10SM CLR 07/05 A3012 RMK AO2 SLP179 T00720050 10094 20050 55001 Kit Carson County Airport KITR 231153Z AUTO 25006KT 9SM CLR 06/04 A3013 RMK AO2 SLP181 T00560044 10089 20056 50002 LIMON MUNICIPAL AIRPORT KLIC 231155Z AUTO 34005KT 10SM CLR 04/03 A3016 RMK AO2 SLP188 70001 T00390033 10067 20033 50000 COLORADO SPRINGS MUNI KCOS 231154Z 02009KT 10SM FEW250 06/02 A3021 LAMAR MUNICIPAL AIRPORT KLAA 231153Z AUTO 26003KT 8SM CLR 07/05 A3010 RMK AO2 SLP168 T00670050 10117 20056 51006 LA JUNTA MUNICIPAL AIRPORT KLHX 231153Z AUTO 23006KT 10SM CLR 08/06 A3013 RMK AO2 SLP169 T00830061 10150 20078 53007 Trinidad, Perry Stokes Airport KTAD 231154Z AUTO 25013KT 10SM CLR 08/02 A3019 RMK AO2 SLP171 T00780017 10100 20072 53003 PUEBLO MEMORIAL AIRPORT KPUB 231153Z 24006KT 10SM CLR 06/04 A3015 CANON CITY 1V6 SAN LUIS VALLEY REGIONAL KALS 231152Z AUTO 00000KT 10SM CLR M03/M04 A3031 Saguache, Saguache Municipal Airport K04V 231154Z AUTO 31003KT 10SM CLR 01/M01 A3033 RMK AO2 Granby-Grand County Airport KGNB WALDEN 33V Steamboat Springs KSBS 231154Z AUTO 00000KT 10SM CLR 00/M01 A3030 RMK AO1 T00001011 Hayden, Yampa Valley Airport KHDN 231155Z AUTO 12008KT 10SM CLR 01/M02 A3028 RMK AO1 10040 20010 52003 Kremmling, Mc Elroy Airfield K20V 231154Z AUTO 00000KT 1/2SM FZFG OVC001 M01/M02 RMK AO2 LEADVILLE LAKE CO KLXV 231153Z AUTO 02004KT 10SM CLR 00/M05 A3038 Eagle County Regional KEGE 231155Z AUTO 00000KT 10SM CLR 00/M01 A3035 CRAIG MOFFAT AIRPORT KCAG 231153Z AUTO 00000KT 10SM CLR M02/M04 A3029 MEEKER AIRPORT KEEO 231153Z AUTO 33004KT 10SM CLR 02/00 A3029 RMK AO2 SLP222 T00170000 10056 20011 53005 FZRANO ASPEN-PITKIN COUNTY AIRPORT KASE 231153Z 20006KT 10SM CLR 01/M02 A3034 Gunnison, Gunnison-Crested Butte Regional Airport KGUC 231155Z AUTO 00000KT 10SM CLR M01/M03 A3040 RMK AO1 70007 10040 21020 52014 DURANGO-LA PLATA COUNTY AIRPORT  KDRO 231153Z AUTO 35003KT 10SM CLR 02/00 A3030 RMK AO2 SLP229 70008 T00170000 10056 20011 53006 Stevens Field Airport KPSO 231155Z AUTO 00000KT 4SM BR CLR 02/02 A3033 RMK AO2 T00170017 10042 20015 CORTEZ MONTEZUMA COUNTY AIRPORT  KCEZ 231153Z AUTO 08003KT 10SM CLR 02/00 A3028 RMK AO2 SLP214 T00170000 10061 20011 53006 MONTROSE REGIONAL AIRPORT KMTJ 231153Z AUTO 16006KT 10SM CLR 04/01 A3029 RMK AO2 SLP215 T00390011 10089 20039 53007 RIFLE GARFIELD COUNTY RGNL KRIL 231153Z AUTO 00000KT 10SM CLR 02/01 A3028 RMK AO2 SLP232 T00220006 10061 20017 53007 GRAND JUNCTION WALKER FIELD KGJT 231153Z 15003KT 10SM CLR 06/03 A3022 Blake Field Airport KAJZ 231155Z AUTO 09003KT 10SM CLR 05/02 A3027 RMK AO2 T00510015 10095 20051 Central Colorado Regional Airport KAEJ 231155Z AUTO 00000KT 10SM CLR 00/M03 A3033 RMK AO2 T10011030 10038 21004 Harriet Alexander Field Airport KANK 231155Z AUTO 27003KT 10SM CLR 03/00 A3039 RMK AO1 T00331005 10087 20031 Erie Municipal Airport KEIK 231155Z AUTO 00000KT 10SM CLR 04/02 A3015 RMK AO2 T00410024 10083 20027 Wray Municipal Airport K2V5 231155Z AUTO 25007KT 10SM CLR 04/01 A3011 RMK AO2 T00400011 10069 20033
Legend: High Mountain AWOS Mountain Pass AWOS
Mountain Pass AWOS - Click symbol for weather report Pagosa Springs, Wolf Creek Pass KCPW 231156Z AUTO 31003KT 10SM CLR 00/M06 RMK AO2 Saguache, Saguache Municipal Airport K04V 231154Z AUTO 31003KT 10SM CLR 01/M01 A3033 RMK AO2 Kremmling, Mc Elroy Airfield K20V 231154Z AUTO 00000KT 1/2SM FZFG OVC001 M01/M02 RMK AO2 La Veta Mountain, La Veta Pass KVTP 231148Z AUTO 20007G17KT 140V250 10SM CLR 01/M01 A3036 RMK AO2 Salida Mountain, Monarch Pass KMYP 231157Z AUTO 27024KT 10SM SCT001 M02/M02 A3054 RMK AO2 Cottonwood Pass K7BM 231154Z AUTO 33007G15KT 290V350 10SM CLR 06/M05 A3037 RMK AO2 Elbert Mountain, Monument Pass KMNH 231152Z AUTO 24005KT 10SM CLR 03/M01 A3021 RMK AO2 Wilkerson Pass K4BM 260156Z AUTO 20008KT 7SM RA SCT035 SCT055 BKN090 08/03 A3056 RMK AO2 Copper Mountain, Red Cliff Pass KCCU 231157Z AUTO 26016G22KT 7SM CLR 01/M05 A3046 RMK AO2 EMPIRE 0CO Sunlight K5SM 231158Z AUTO 00000KT 10SM CLR 01/00 A3045 RMK AO2 Mount Werner K3MW 211630Z AUTO RMK AO2 TSNO PWINO
Garmin aera 796 $1999 at Avionics Specialists LLC
Bose A20 Aviation Headsets $995 at Avionics Specialists LLC